sensor_id;sensor_type;location;lat;lon;timestamp;pressure;altitude;pressure_sealevel;temperature;humidity
45255;BME280;30989;52.078;21.014;2023-07-29T00:01:36;167894.25;;;15.74;100.00
45255;BME280;30989;52.078;21.014;2023-07-29T00:04:02;167898.28;;;15.76;100.00
45255;BME280;30989;52.078;21.014;2023-07-29T00:06:28;167892.91;;;15.74;100.00
45255;BME280;30989;52.078;21.014;2023-07-29T00:08:53;167899.63;;;15.76;100.00
45255;BME280;30989;52.078;21.014;2023-07-29T00:11:19;167898.28;;;15.76;100.00
45255;BME280;30989;52.078;21.014;2023-07-29T00:13:44;167896.94;;;15.75;100.00
45255;BME280;30989;52.078;21.014;2023-07-29T00:16:10;167903.66;;;15.78;100.00
45255;BME280;30989;52.078;21.014;2023-07-29T00:18:35;167907.69;;;15.79;100.00
45255;BME280;30989;52.078;21.014;2023-07-29T00:21:01;167910.38;;;15.81;100.00
45255;BME280;30989;52.078;21.014;2023-07-29T00:23:27;167911.72;;;15.81;100.00
45255;BME280;30989;52.078;21.014;2023-07-29T00:25:52;167917.09;;;15.83;100.00
45255;BME280;30989;52.078;21.014;2023-07-29T00:28:17;167922.47;;;15.85;100.00
45255;BME280;30989;52.078;21.014;2023-07-29T00:30:43;167926.50;;;15.87;100.00
45255;BME280;30989;52.078;21.014;2023-07-29T00:33:09;167945.31;;;15.94;100.00
45255;BME280;30989;52.078;21.014;2023-07-29T00:35:35;167939.94;;;15.92;100.00
45255;BME280;30989;52.078;21.014;2023-07-29T00:38:00;167945.31;;;15.94;100.00
45255;BME280;30989;52.078;21.014;2023-07-29T00:40:28;167902.31;;;15.77;100.00
45255;BME280;30989;52.078;21.014;2023-07-29T00:42:54;167943.97;;;15.93;100.00
45255;BME280;30989;52.078;21.014;2023-07-29T00:45:19;167956.06;;;15.98;100.00
45255;BME280;30989;52.078;21.014;2023-07-29T00:47:45;167950.69;;;15.96;100.00
45255;BME280;30989;52.078;21.014;2023-07-29T00:50:12;167942.63;;;15.93;100.00
45255;BME280;30989;52.078;21.014;2023-07-29T00:52:37;167958.75;;;15.99;100.00
45255;BME280;30989;52.078;21.014;2023-07-29T00:55:04;167952.03;;;15.96;100.00
45255;BME280;30989;52.078;21.014;2023-07-29T00:57:30;167964.13;;;16.01;100.00
45255;BME280;30989;52.078;21.014;2023-07-29T00:59:56;167954.72;;;15.97;100.00
45255;BME280;30989;52.078;21.014;2023-07-29T01:02:22;167945.31;;;15.94;100.00
45255;BME280;30989;52.078;21.014;2023-07-29T01:04:55;167956.06;;;15.98;100.00
45255;BME280;30989;52.078;21.014;2023-07-29T01:07:55;167960.09;;;15.99;100.00
45255;BME280;30989;52.078;21.014;2023-07-29T01:10:46;167950.69;;;15.96;100.00
45255;BME280;30989;52.078;21.014;2023-07-29T01:14:03;167943.97;;;15.93;100.00
45255;BME280;30989;52.078;21.014;2023-07-29T01:16:13;167917.09;;;15.83;100.00
45255;BME280;30989;52.078;21.014;2023-07-29T01:18:42;167921.13;;;15.85;100.00
45255;BME280;30989;52.078;21.014;2023-07-29T01:21:11;167913.06;;;15.82;100.00
45255;BME280;30989;52.078;21.014;2023-07-29T01:23:37;167905.00;;;15.78;100.00
45255;BME280;30989;52.078;21.014;2023-07-29T01:26:03;167909.03;;;15.80;100.00
45255;BME280;30989;52.078;21.014;2023-07-29T01:28:29;167911.72;;;15.81;100.00
45255;BME280;30989;52.078;21.014;2023-07-29T01:31:14;167910.38;;;15.81;100.00
45255;BME280;30989;52.078;21.014;2023-07-29T01:36:34;167927.84;;;15.87;100.00
45255;BME280;30989;52.078;21.014;2023-07-29T01:39:05;167934.56;;;15.90;100.00
45255;BME280;30989;52.078;21.014;2023-07-29T01:41:30;167939.94;;;15.92;100.00
45255;BME280;30989;52.078;21.014;2023-07-29T01:43:57;167934.56;;;15.90;100.00
45255;BME280;30989;52.078;21.014;2023-07-29T01:46:22;167934.56;;;15.90;100.00
45255;BME280;30989;52.078;21.014;2023-07-29T01:48:48;167927.84;;;15.87;100.00
45255;BME280;30989;52.078;21.014;2023-07-29T01:51:13;167931.88;;;15.89;100.00
45255;BME280;30989;52.078;21.014;2023-07-29T01:53:39;167919.78;;;15.84;100.00
45255;BME280;30989;52.078;21.014;2023-07-29T01:56:04;167921.13;;;15.85;100.00
45255;BME280;30989;52.078;21.014;2023-07-29T01:58:31;167915.75;;;15.83;100.00
45255;BME280;30989;52.078;21.014;2023-07-29T02:00:57;167931.88;;;15.89;100.00
45255;BME280;30989;52.078;21.014;2023-07-29T02:03:30;167918.44;;;15.84;100.00
45255;BME280;30989;52.078;21.014;2023-07-29T02:05:55;167937.25;;;15.91;100.00
45255;BME280;30989;52.078;21.014;2023-07-29T02:08:21;167935.91;;;15.90;100.00
45255;BME280;30989;52.078;21.014;2023-07-29T02:10:47;167929.19;;;15.88;100.00
45255;BME280;30989;52.078;21.014;2023-07-29T02:13:14;167929.19;;;15.88;100.00
45255;BME280;30989;52.078;21.014;2023-07-29T02:15:39;167927.84;;;15.87;100.00
45255;BME280;30989;52.078;21.014;2023-07-29T02:18:05;167926.50;;;15.87;100.00
45255;BME280;30989;52.078;21.014;2023-07-29T02:20:31;167929.19;;;15.88;100.00
45255;BME280;30989;52.078;21.014;2023-07-29T02:22:57;167915.75;;;15.83;100.00
45255;BME280;30989;52.078;21.014;2023-07-29T02:25:22;167915.75;;;15.83;100.00
45255;BME280;30989;52.078;21.014;2023-07-29T02:27:48;167914.41;;;15.82;100.00
45255;BME280;30989;52.078;21.014;2023-07-29T02:30:13;167915.75;;;15.83;100.00
45255;BME280;30989;52.078;21.014;2023-07-29T02:32:39;167915.75;;;15.83;100.00
45255;BME280;30989;52.078;21.014;2023-07-29T02:35:06;167914.41;;;15.82;100.00
45255;BME280;30989;52.078;21.014;2023-07-29T02:37:31;167902.31;;;15.77;100.00
45255;BME280;30989;52.078;21.014;2023-07-29T02:39:57;167884.84;;;15.71;100.00
45255;BME280;30989;52.078;21.014;2023-07-29T02:42:22;167891.56;;;15.73;100.00
45255;BME280;30989;52.078;21.014;2023-07-29T02:44:47;167888.88;;;15.72;100.00
45255;BME280;30989;52.078;21.014;2023-07-29T02:47:13;167883.50;;;15.70;100.00
45255;BME280;30989;52.078;21.014;2023-07-29T02:49:38;167880.81;;;15.69;100.00
45255;BME280;30989;52.078;21.014;2023-07-29T02:52:04;167867.41;;;15.64;100.00
45255;BME280;30989;52.078;21.014;2023-07-29T02:54:31;167859.34;;;15.61;100.00
45255;BME280;30989;52.078;21.014;2023-07-29T02:56:56;167843.09;;;15.55;100.00
45255;BME280;30989;52.078;21.014;2023-07-29T02:59:22;167836.38;;;15.53;100.00
45255;BME280;30989;52.078;21.014;2023-07-29T03:01:47;167829.69;;;15.50;100.00
45255;BME280;30989;52.078;21.014;2023-07-29T03:04:13;167832.38;;;15.51;100.00
45255;BME280;30989;52.078;21.014;2023-07-29T03:06:38;167845.78;;;15.56;100.00
45255;BME280;30989;52.078;21.014;2023-07-29T03:09:04;167824.31;;;15.48;100.00
45255;BME280;30989;52.078;21.014;2023-07-29T03:11:30;167821.63;;;15.47;100.00
45255;BME280;30989;52.078;21.014;2023-07-29T03:13:56;167827.00;;;15.49;100.00
45255;BME280;30989;52.078;21.014;2023-07-29T03:16:22;167813.56;;;15.44;100.00
45255;BME280;30989;52.078;21.014;2023-07-29T03:18:52;167796.09;;;15.37;100.00
45255;BME280;30989;52.078;21.014;2023-07-29T03:21:18;167801.47;;;15.39;100.00
45255;BME280;30989;52.078;21.014;2023-07-29T03:23:43;167798.78;;;15.38;100.00
45255;BME280;30989;52.078;21.014;2023-07-29T03:26:08;167797.44;;;15.38;100.00
45255;BME280;30989;52.078;21.014;2023-07-29T03:28:40;167785.34;;;15.33;100.00
45255;BME280;30989;52.078;21.014;2023-07-29T03:31:05;167773.25;;;15.29;100.00
45255;BME280;30989;52.078;21.014;2023-07-29T03:33:32;167723.56;;;15.10;100.00
45255;BME280;30989;52.078;21.014;2023-07-29T03:35:58;167749.09;;;15.20;100.00
45255;BME280;30989;52.078;21.014;2023-07-29T03:38:23;167743.72;;;15.18;100.00
45255;BME280;30989;52.078;21.014;2023-07-29T03:40:50;167758.47;;;15.23;100.00
45255;BME280;30989;52.078;21.014;2023-07-29T03:43:15;167769.22;;;15.27;100.00
45255;BME280;30989;52.078;21.014;2023-07-29T03:45:41;167774.59;;;15.29;100.00
45255;BME280;30989;52.078;21.014;2023-07-29T03:48:07;167781.31;;;15.32;100.00
45255;BME280;30989;52.078;21.014;2023-07-29T03:50:34;167790.72;;;15.35;100.00
45255;BME280;30989;52.078;21.014;2023-07-29T03:53:03;167794.75;;;15.37;100.00
45255;BME280;30989;52.078;21.014;2023-07-29T03:55:29;167802.81;;;15.40;100.00
45255;BME280;30989;52.078;21.014;2023-07-29T03:57:58;167805.50;;;15.41;100.00
45255;BME280;30989;52.078;21.014;2023-07-29T04:00:24;167812.22;;;15.43;100.00
45255;BME280;30989;52.078;21.014;2023-07-29T04:02:49;167813.56;;;15.44;100.00
45255;BME280;30989;52.078;21.014;2023-07-29T04:05:15;167816.25;;;15.45;100.00
45255;BME280;30989;52.078;21.014;2023-07-29T04:07:41;167817.59;;;15.45;100.00
45255;BME280;30989;52.078;21.014;2023-07-29T04:10:07;167824.31;;;15.48;100.00
45255;BME280;30989;52.078;21.014;2023-07-29T04:12:32;167833.72;;;15.52;100.00
45255;BME280;30989;52.078;21.014;2023-07-29T04:14:58;167840.44;;;15.54;100.00
45255;BME280;30989;52.078;21.014;2023-07-29T04:17:23;167841.75;;;15.55;100.00
45255;BME280;30989;52.078;21.014;2023-07-29T04:19:49;167848.53;;;15.57;100.00
45255;BME280;30989;52.078;21.014;2023-07-29T04:22:16;167855.25;;;15.60;100.00
45255;BME280;30989;52.078;21.014;2023-07-29T04:24:42;167859.34;;;15.61;100.00
45255;BME280;30989;52.078;21.014;2023-07-29T04:27:07;167867.41;;;15.64;100.00
45255;BME280;30989;52.078;21.014;2023-07-29T04:29:33;167875.47;;;15.67;100.00
45255;BME280;30989;52.078;21.014;2023-07-29T04:32:01;167883.50;;;15.70;100.00
45255;BME280;30989;52.078;21.014;2023-07-29T04:34:26;167905.00;;;15.78;100.00
45255;BME280;30989;52.078;21.014;2023-07-29T04:36:52;167899.63;;;15.76;100.00
45255;BME280;30989;52.078;21.014;2023-07-29T04:39:17;167895.59;;;15.75;100.00
45255;BME280;30989;52.078;21.014;2023-07-29T04:41:43;167884.84;;;15.71;100.00
45255;BME280;30989;52.078;21.014;2023-07-29T04:44:09;167902.31;;;15.77;100.00
45255;BME280;30989;52.078;21.014;2023-07-29T04:46:36;167915.75;;;15.83;100.00
45255;BME280;30989;52.078;21.014;2023-07-29T04:49:01;167934.56;;;15.90;100.00
45255;BME280;30989;52.078;21.014;2023-07-29T04:51:28;167953.38;;;15.97;100.00
45255;BME280;30989;52.078;21.014;2023-07-29T04:53:53;167976.22;;;16.05;100.00
45255;BME280;30989;52.078;21.014;2023-07-29T04:56:19;167972.19;;;16.04;100.00
45255;BME280;30989;52.078;21.014;2023-07-29T04:58:45;167989.66;;;16.10;100.00
45255;BME280;30989;52.078;21.014;2023-07-29T05:01:10;167996.38;;;16.13;100.00
45255;BME280;30989;52.078;21.014;2023-07-29T05:03:35;167999.06;;;16.14;100.00
45255;BME280;30989;52.078;21.014;2023-07-29T05:06:04;168027.28;;;16.25;100.00
45255;BME280;30989;52.078;21.014;2023-07-29T05:08:29;168035.34;;;16.28;100.00
45255;BME280;30989;52.078;21.014;2023-07-29T05:10:55;168060.88;;;16.37;100.00
45255;BME280;30989;52.078;21.014;2023-07-29T05:13:22;168067.63;;;16.40;100.00
45255;BME280;30989;52.078;21.014;2023-07-29T05:15:48;168079.72;;;16.44;100.00
45255;BME280;30989;52.078;21.014;2023-07-29T05:18:14;168109.28;;;16.56;100.00
45255;BME280;30989;52.078;21.014;2023-07-29T05:20:40;168106.59;;;16.55;100.00
45255;BME280;30989;52.078;21.014;2023-07-29T05:23:06;168105.25;;;16.54;100.00
45255;BME280;30989;52.078;21.014;2023-07-29T05:25:32;168114.66;;;16.58;100.00
45255;BME280;30989;52.078;21.014;2023-07-29T05:27:57;168117.34;;;16.59;100.00
45255;BME280;30989;52.078;21.014;2023-07-29T05:30:23;168126.75;;;16.62;100.00
45255;BME280;30989;52.078;21.014;2023-07-29T05:32:49;168144.28;;;16.69;100.00
45255;BME280;30989;52.078;21.014;2023-07-29T05:35:14;168168.47;;;16.78;100.00
45255;BME280;30989;52.078;21.014;2023-07-29T05:37:40;168192.66;;;16.87;100.00
45255;BME280;30989;52.078;21.014;2023-07-29T05:40:07;168206.13;;;16.92;100.00
45255;BME280;30989;52.078;21.014;2023-07-29T05:42:33;168216.88;;;16.96;100.00
45255;BME280;30989;52.078;21.014;2023-07-29T05:44:59;168203.44;;;16.91;100.00
45255;BME280;30989;52.078;21.014;2023-07-29T05:47:24;168257.22;;;17.12;100.00
45255;BME280;30989;52.078;21.014;2023-07-29T05:49:49;168289.47;;;17.24;100.00
45255;BME280;30989;52.078;21.014;2023-07-29T05:52:15;168308.31;;;17.31;100.00
45255;BME280;30989;52.078;21.014;2023-07-29T05:54:41;168317.72;;;17.34;100.00
45255;BME280;30989;52.078;21.014;2023-07-29T05:57:09;168329.81;;;17.39;100.00
45255;BME280;30989;52.078;21.014;2023-07-29T05:59:35;168335.19;;;17.41;100.00
45255;BME280;30989;52.078;21.014;2023-07-29T06:02:00;168337.91;;;17.42;100.00
45255;BME280;30989;52.078;21.014;2023-07-29T06:04:25;168354.03;;;17.48;100.00
45255;BME280;30989;52.078;21.014;2023-07-29T06:06:51;168366.13;;;17.53;100.00
45255;BME280;30989;52.078;21.014;2023-07-29T06:09:16;168368.81;;;17.54;100.00
45255;BME280;30989;52.078;21.014;2023-07-29T06:11:42;168362.09;;;17.51;100.00
45255;BME280;30989;52.078;21.014;2023-07-29T06:14:07;168367.47;;;17.53;100.00
45255;BME280;30989;52.078;21.014;2023-07-29T06:16:33;168372.88;;;17.55;100.00
45255;BME280;30989;52.078;21.014;2023-07-29T06:18:58;168375.56;;;17.56;100.00
45255;BME280;30989;52.078;21.014;2023-07-29T06:21:24;168415.94;;;17.71;100.00
45255;BME280;30989;52.078;21.014;2023-07-29T06:23:49;168461.69;;;17.89;100.00
45255;BME280;30989;52.078;21.014;2023-07-29T06:26:15;168512.81;;;18.08;100.00
45255;BME280;30989;52.078;21.014;2023-07-29T06:28:40;168558.53;;;18.25;100.00
45255;BME280;30989;52.078;21.014;2023-07-29T06:31:05;168606.97;;;18.44;100.00
45255;BME280;30989;52.078;21.014;2023-07-29T06:33:31;168620.44;;;18.49;100.00
45255;BME280;30989;52.078;21.014;2023-07-29T06:35:57;168625.81;;;18.51;100.00
45255;BME280;30989;52.078;21.014;2023-07-29T06:38:22;168633.91;;;18.54;100.00
45255;BME280;30989;52.078;21.014;2023-07-29T06:40:48;168647.34;;;18.59;100.00
45255;BME280;30989;52.078;21.014;2023-07-29T06:43:14;168655.47;;;18.62;100.00
45255;BME280;30989;52.078;21.014;2023-07-29T06:45:39;168625.81;;;18.51;100.00
45255;BME280;30989;52.078;21.014;2023-07-29T06:48:05;168637.94;;;18.55;100.00
45255;BME280;30989;52.078;21.014;2023-07-29T06:50:31;168646.00;;;18.58;100.00
45255;BME280;30989;52.078;21.014;2023-07-29T06:52:56;168644.66;;;18.58;100.00
45255;BME280;30989;52.078;21.014;2023-07-29T06:55:21;168648.69;;;18.59;100.00
45255;BME280;30989;52.078;21.014;2023-07-29T06:57:47;168635.25;;;18.54;100.00
45255;BME280;30989;52.078;21.014;2023-07-29T07:00:13;168639.28;;;18.56;100.00
45255;BME280;30989;52.078;21.014;2023-07-29T07:02:38;168650.03;;;18.60;100.00
45255;BME280;30989;52.078;21.014;2023-07-29T07:05:04;168690.47;;;18.75;100.00
45255;BME280;30989;52.078;21.014;2023-07-29T07:07:29;168760.47;;;19.02;100.00
45255;BME280;30989;52.078;21.014;2023-07-29T07:09:55;168847.94;;;19.35;100.00
45255;BME280;30989;52.078;21.014;2023-07-29T07:12:20;168934.16;;;19.67;100.00
45255;BME280;30989;52.078;21.014;2023-07-29T07:14:46;168992.06;;;19.89;100.00
45255;BME280;30989;52.078;21.014;2023-07-29T07:17:12;169051.31;;;20.11;100.00
45255;BME280;30989;52.078;21.014;2023-07-29T07:19:37;169070.19;;;20.18;100.00
45255;BME280;30989;52.078;21.014;2023-07-29T07:22:03;169087.69;;;20.25;100.00
45255;BME280;30989;52.078;21.014;2023-07-29T07:24:29;169064.78;;;20.16;100.00
45255;BME280;30989;52.078;21.014;2023-07-29T07:26:54;169037.84;;;20.06;100.00
45255;BME280;30989;52.078;21.014;2023-07-29T07:29:20;169013.63;;;19.97;100.00
45255;BME280;30989;52.078;21.014;2023-07-29T07:31:50;168979.94;;;19.84;100.00
45255;BME280;30989;52.078;21.014;2023-07-29T07:34:18;168963.78;;;19.78;100.00
45255;BME280;30989;52.078;21.014;2023-07-29T07:36:43;169002.84;;;19.93;100.00
45255;BME280;30989;52.078;21.014;2023-07-29T07:39:08;169059.41;;;20.14;100.00
45255;BME280;30989;52.078;21.014;2023-07-29T07:41:36;169091.72;;;20.26;100.00
45255;BME280;30989;52.078;21.014;2023-07-29T07:44:02;169067.50;;;20.17;100.00
45255;BME280;30989;52.078;21.014;2023-07-29T07:46:28;169032.47;;;20.04;100.00
45255;BME280;30989;52.078;21.014;2023-07-29T07:48:53;169036.50;;;20.06;100.00
45255;BME280;30989;52.078;21.014;2023-07-29T07:51:19;169033.81;;;20.05;100.00
45255;BME280;30989;52.078;21.014;2023-07-29T07:53:44;169052.69;;;20.12;100.00
45255;BME280;30989;52.078;21.014;2023-07-29T07:56:10;169068.84;;;20.18;100.00
45255;BME280;30989;52.078;21.014;2023-07-29T07:58:35;169086.34;;;20.24;100.00
45255;BME280;30989;52.078;21.014;2023-07-29T08:01:05;169091.72;;;20.26;100.00
45255;BME280;30989;52.078;21.014;2023-07-29T08:03:30;169126.81;;;20.40;100.00
45255;BME280;30989;52.078;21.014;2023-07-29T08:05:56;169151.06;;;20.49;100.00
45255;BME280;30989;52.078;21.014;2023-07-29T08:08:21;169171.25;;;20.56;100.00
45255;BME280;30989;52.078;21.014;2023-07-29T08:10:47;169214.38;;;20.73;100.00
45255;BME280;30989;52.078;21.014;2023-07-29T08:13:12;169242.72;;;20.83;100.00
45255;BME280;30989;52.078;21.014;2023-07-29T08:15:38;169252.16;;;20.87;100.00
45255;BME280;30989;52.078;21.014;2023-07-29T08:18:03;169314.13;;;21.10;100.00
45255;BME280;30989;52.078;21.014;2023-07-29T08:20:29;169364.03;;;21.29;100.00
45255;BME280;30989;52.078;21.014;2023-07-29T08:22:54;169370.78;;;21.32;100.00
45255;BME280;30989;52.078;21.014;2023-07-29T08:25:19;169384.25;;;21.37;100.00
45255;BME280;30989;52.078;21.014;2023-07-29T08:27:45;169417.94;;;21.49;100.00
45255;BME280;30989;52.078;21.014;2023-07-29T08:30:10;169457.03;;;21.64;100.00
45255;BME280;30989;52.078;21.014;2023-07-29T08:32:36;169513.66;;;21.85;100.00
45255;BME280;30989;52.078;21.014;2023-07-29T08:35:01;169524.44;;;21.90;100.00
45255;BME280;30989;52.078;21.014;2023-07-29T08:37:27;169541.94;;;21.96;100.00
45255;BME280;30989;52.078;21.014;2023-07-29T08:39:52;169566.28;;;22.05;100.00
45255;BME280;30989;52.078;21.014;2023-07-29T08:42:19;169587.84;;;22.13;100.00
45255;BME280;30989;52.078;21.014;2023-07-29T08:44:49;169614.81;;;22.24;100.00
45255;BME280;30989;52.078;21.014;2023-07-29T08:47:14;169595.94;;;22.16;98.08
45255;BME280;30989;52.078;21.014;2023-07-29T08:49:41;169571.66;;;22.07;98.90
45255;BME280;30989;52.078;21.014;2023-07-29T08:52:07;169539.25;;;21.95;100.00
45255;BME280;30989;52.078;21.014;2023-07-29T08:54:33;169550.03;;;21.99;100.00
45255;BME280;30989;52.078;21.014;2023-07-29T08:56:59;169593.22;;;22.15;100.00
45255;BME280;30989;52.078;21.014;2023-07-29T08:59:25;169635.03;;;22.31;97.72
45255;BME280;30989;52.078;21.014;2023-07-29T09:01:52;169666.03;;;22.43;96.70
45255;BME280;30989;52.078;21.014;2023-07-29T09:04:21;169679.53;;;22.48;94.09
45255;BME280;30989;52.078;21.014;2023-07-29T09:06:47;169693.00;;;22.53;96.50
45255;BME280;30989;52.078;21.014;2023-07-29T09:09:15;169742.91;;;22.72;95.80
45255;BME280;30989;52.078;21.014;2023-07-29T09:11:43;169775.31;;;22.84;93.49
45255;BME280;30989;52.078;21.014;2023-07-29T09:14:09;169790.16;;;22.90;89.96
45255;BME280;30989;52.078;21.014;2023-07-29T09:16:35;169811.75;;;22.98;92.73
45255;BME280;30989;52.078;21.014;2023-07-29T09:19:02;169836.03;;;23.07;92.20
45255;BME280;30989;52.078;21.014;2023-07-29T09:21:29;169875.13;;;23.22;92.58
45255;BME280;30989;52.078;21.014;2023-07-29T09:23:55;169900.75;;;23.31;88.54
45255;BME280;30989;52.078;21.014;2023-07-29T09:26:25;169891.31;;;23.28;87.28
45255;BME280;30989;52.078;21.014;2023-07-29T09:28:55;169830.63;;;23.05;87.13
45255;BME280;30989;52.078;21.014;2023-07-29T09:31:25;169749.66;;;22.74;89.11
45255;BME280;30989;52.078;21.014;2023-07-29T09:34:02;169701.09;;;22.56;88.36
45255;BME280;30989;52.078;21.014;2023-07-29T09:36:31;169706.50;;;22.58;88.57
45255;BME280;30989;52.078;21.014;2023-07-29T09:38:57;169722.69;;;22.64;85.46
45255;BME280;30989;52.078;21.014;2023-07-29T09:41:26;169752.34;;;22.75;86.44
45255;BME280;30989;52.078;21.014;2023-07-29T09:44:02;169768.59;;;22.81;85.36
45255;BME280;30989;52.078;21.014;2023-07-29T09:46:36;169814.44;;;22.99;87.58
45255;BME280;30989;52.078;21.014;2023-07-29T09:49:06;169860.31;;;23.16;87.87
45255;BME280;30989;52.078;21.014;2023-07-29T09:51:37;169852.19;;;23.13;87.29
45255;BME280;30989;52.078;21.014;2023-07-29T09:54:04;169844.13;;;23.10;87.33
45255;BME280;30989;52.078;21.014;2023-07-29T09:56:30;169853.56;;;23.13;86.46
45255;BME280;30989;52.078;21.014;2023-07-29T09:58:56;169833.31;;;23.06;84.12
45255;BME280;30989;52.078;21.014;2023-07-29T10:01:23;169811.75;;;22.98;83.40
45255;BME280;30989;52.078;21.014;2023-07-29T10:03:49;169825.22;;;23.03;83.83
45255;BME280;30989;52.078;21.014;2023-07-29T10:06:15;169861.66;;;23.17;85.11
45255;BME280;30989;52.078;21.014;2023-07-29T10:08:42;169868.41;;;23.19;79.75
45255;BME280;30989;52.078;21.014;2023-07-29T10:11:09;169834.66;;;23.06;82.95
45255;BME280;30989;52.078;21.014;2023-07-29T10:13:35;169865.69;;;23.18;83.58
45255;BME280;30989;52.078;21.014;2023-07-29T10:16:02;169918.31;;;23.38;82.89
45255;BME280;30989;52.078;21.014;2023-07-29T10:18:28;170002.00;;;23.69;82.15
45255;BME280;30989;52.078;21.014;2023-07-29T10:20:54;170066.78;;;23.94;80.18
45255;BME280;30989;52.078;21.014;2023-07-29T10:23:26;170150.44;;;24.25;81.07
45255;BME280;30989;52.078;21.014;2023-07-29T10:25:57;170192.34;;;24.41;78.79
45255;BME280;30989;52.078;21.014;2023-07-29T10:28:29;170205.84;;;24.46;78.96
45255;BME280;30989;52.078;21.014;2023-07-29T10:30:56;170249.03;;;24.62;79.56
45255;BME280;30989;52.078;21.014;2023-07-29T10:33:22;170319.22;;;24.89;78.08
45255;BME280;30989;52.078;21.014;2023-07-29T10:35:47;170348.97;;;25.00;79.74
45255;BME280;30989;52.078;21.014;2023-07-29T10:38:13;170392.19;;;25.16;77.66
45255;BME280;30989;52.078;21.014;2023-07-29T10:40:58;170384.09;;;25.13;74.55
45255;BME280;30989;52.078;21.014;2023-07-29T10:43:33;170388.13;;;25.15;75.26
45255;BME280;30989;52.078;21.014;2023-07-29T10:46:20;170474.56;;;25.47;74.65
45255;BME280;30989;52.078;21.014;2023-07-29T10:48:56;170590.75;;;25.91;71.43
45255;BME280;30989;52.078;21.014;2023-07-29T10:51:35;170604.25;;;25.96;67.74
45255;BME280;30989;52.078;21.014;2023-07-29T10:54:13;170569.16;;;25.83;69.90
45255;BME280;30989;52.078;21.014;2023-07-29T10:56:47;170627.28;;;26.05;70.61
45255;BME280;30989;52.078;21.014;2023-07-29T11:01:40;170559.69;;;25.79;68.30
45255;BME280;30989;52.078;21.014;2023-07-29T11:07:25;170662.41;;;26.18;68.47
45255;BME280;30989;52.078;21.014;2023-07-29T11:17:43;171008.41;;;27.48;64.51
45255;BME280;30989;52.078;21.014;2023-07-29T11:20:10;171066.59;;;27.70;64.20
45255;BME280;30989;52.078;21.014;2023-07-29T11:22:36;171065.25;;;27.69;61.65
45255;BME280;30989;52.078;21.014;2023-07-29T11:25:02;171094.97;;;27.80;62.97
45255;BME280;30989;52.078;21.014;2023-07-29T11:27:27;171130.13;;;27.93;62.23
45255;BME280;30989;52.078;21.014;2023-07-29T11:30:05;171201.78;;;28.20;62.69
45255;BME280;30989;52.078;21.014;2023-07-29T11:32:32;171315.44;;;28.63;63.73
45255;BME280;30989;52.078;21.014;2023-07-29T11:35:08;171420.97;;;29.03;60.27
45255;BME280;30989;52.078;21.014;2023-07-29T11:37:35;171525.13;;;29.42;54.04
45255;BME280;30989;52.078;21.014;2023-07-29T11:40:01;171569.81;;;29.59;55.81
45255;BME280;30989;52.078;21.014;2023-07-29T11:42:28;171698.41;;;30.07;57.90
45255;BME280;30989;52.078;21.014;2023-07-29T11:44:57;171879.81;;;30.75;56.95
45255;BME280;30989;52.078;21.014;2023-07-29T11:47:23;171950.19;;;31.01;57.42
45255;BME280;30989;52.078;21.014;2023-07-29T11:49:49;171993.56;;;31.18;55.46
45255;BME280;30989;52.078;21.014;2023-07-29T11:52:14;171875.75;;;30.73;52.36
45255;BME280;30989;52.078;21.014;2023-07-29T11:54:44;171802.63;;;30.46;53.00
45255;BME280;30989;52.078;21.014;2023-07-29T11:57:13;171832.38;;;30.57;50.39
45255;BME280;30989;52.078;21.014;2023-07-29T11:59:42;171938.03;;;30.97;52.55
45255;BME280;30989;52.078;21.014;2023-07-29T12:02:13;172046.41;;;31.37;51.10
45255;BME280;30989;52.078;21.014;2023-07-29T12:04:41;172187.28;;;31.90;48.25
45255;BME280;30989;52.078;21.014;2023-07-29T12:07:07;172326.84;;;32.43;50.10
45255;BME280;30989;52.078;21.014;2023-07-29T12:09:34;172517.91;;;33.14;49.95
45255;BME280;30989;52.078;21.014;2023-07-29T12:12:00;172618.22;;;33.52;46.77
45255;BME280;30989;52.078;21.014;2023-07-29T12:14:28;172728.03;;;33.93;45.03
45255;BME280;30989;52.078;21.014;2023-07-29T12:16:54;172793.09;;;34.17;44.68
45255;BME280;30989;52.078;21.014;2023-07-29T12:19:19;172862.25;;;34.43;44.74
45255;BME280;30989;52.078;21.014;2023-07-29T12:21:47;173029.06;;;35.06;46.15
45255;BME280;30989;52.078;21.014;2023-07-29T12:24:13;173075.16;;;35.23;44.15
45255;BME280;30989;52.078;21.014;2023-07-29T12:26:40;172988.38;;;34.90;43.44
45255;BME280;30989;52.078;21.014;2023-07-29T12:29:17;172874.47;;;34.48;43.88
45255;BME280;30989;52.078;21.014;2023-07-29T12:31:45;172874.47;;;34.48;44.49
45255;BME280;30989;52.078;21.014;2023-07-29T12:34:17;172879.88;;;34.50;42.79
45255;BME280;30989;52.078;21.014;2023-07-29T12:36:45;172977.53;;;34.86;43.42
45255;BME280;30989;52.078;21.014;2023-07-29T12:41:49;173168.78;;;35.58;41.13
45255;BME280;30989;52.078;21.014;2023-07-29T12:44:15;173204.03;;;35.71;40.91
45255;BME280;30989;52.078;21.014;2023-07-29T12:46:41;173151.13;;;35.51;40.47
45255;BME280;30989;52.078;21.014;2023-07-29T12:49:06;172970.75;;;34.84;41.11
45255;BME280;30989;52.078;21.014;2023-07-29T12:51:32;172690.03;;;33.79;41.56